sensor_id;sensor_type;location;lat;lon;timestamp;pressure;altitude;pressure_sealevel;temperature;humidity
34065;BME280;20339;49.754;20.158;2023-03-26T00:01:34;95733.80;;;6.61;68.35
34065;BME280;20339;49.754;20.158;2023-03-26T00:04:07;95737.34;;;6.60;68.21
34065;BME280;20339;49.754;20.158;2023-03-26T00:06:39;95736.04;;;6.58;68.15
34065;BME280;20339;49.754;20.158;2023-03-26T00:09:11;95733.43;;;6.54;68.37
34065;BME280;20339;49.754;20.158;2023-03-26T00:11:44;95732.67;;;6.51;68.26
34065;BME280;20339;49.754;20.158;2023-03-26T00:14:18;95729.48;;;6.56;68.05
34065;BME280;20339;49.754;20.158;2023-03-26T00:16:49;95733.00;;;6.57;68.11
34065;BME280;20339;49.754;20.158;2023-03-26T00:19:22;95731.20;;;6.57;68.23
34065;BME280;20339;49.754;20.158;2023-03-26T00:21:54;95726.10;;;6.57;68.18
34065;BME280;20339;49.754;20.158;2023-03-26T00:24:27;95733.76;;;6.60;68.06
34065;BME280;20339;49.754;20.158;2023-03-26T00:26:59;95734.88;;;6.62;67.96
34065;BME280;20339;49.754;20.158;2023-03-26T00:29:32;95735.92;;;6.62;67.89
34065;BME280;20339;49.754;20.158;2023-03-26T00:32:06;95734.08;;;6.62;67.83
34065;BME280;20339;49.754;20.158;2023-03-26T00:34:39;95732.04;;;6.59;67.90
34065;BME280;20339;49.754;20.158;2023-03-26T00:37:17;95731.91;;;6.54;67.85
34065;BME280;20339;49.754;20.158;2023-03-26T00:39:50;95735.68;;;6.50;67.80
34065;BME280;20339;49.754;20.158;2023-03-26T00:42:21;95733.79;;;6.50;68.15
34065;BME280;20339;49.754;20.158;2023-03-26T00:44:53;95731.23;;;6.53;68.20
34065;BME280;20339;49.754;20.158;2023-03-26T00:47:27;95727.02;;;6.59;68.10
34065;BME280;20339;49.754;20.158;2023-03-26T00:49:59;95726.96;;;6.63;68.32
34065;BME280;20339;49.754;20.158;2023-03-26T00:52:30;95724.19;;;6.67;68.04
34065;BME280;20339;49.754;20.158;2023-03-26T00:55:01;95721.38;;;6.68;68.20
34065;BME280;20339;49.754;20.158;2023-03-26T00:57:32;95720.16;;;6.71;68.14
34065;BME280;20339;49.754;20.158;2023-03-26T01:00:11;95719.03;;;6.72;68.29
34065;BME280;20339;49.754;20.158;2023-03-26T01:02:43;95716.50;;;6.72;68.22
34065;BME280;20339;49.754;20.158;2023-03-26T01:05:45;95711.98;;;6.72;68.28
34065;BME280;20339;49.754;20.158;2023-03-26T01:08:24;95713.91;;;6.73;68.21
34065;BME280;20339;49.754;20.158;2023-03-26T01:10:59;95711.64;;;6.74;68.28
34065;BME280;20339;49.754;20.158;2023-03-26T01:13:39;95710.74;;;6.74;68.43
34065;BME280;20339;49.754;20.158;2023-03-26T01:16:20;95705.64;;;6.73;68.45
34065;BME280;20339;49.754;20.158;2023-03-26T01:18:54;95706.27;;;6.73;68.36
34065;BME280;20339;49.754;20.158;2023-03-26T01:21:28;95711.27;;;6.77;68.54
34065;BME280;20339;49.754;20.158;2023-03-26T01:24:02;95710.27;;;6.77;68.40
34065;BME280;20339;49.754;20.158;2023-03-26T01:26:56;95710.14;;;6.79;68.23
34065;BME280;20339;49.754;20.158;2023-03-26T01:29:34;95707.02;;;6.80;68.20
34065;BME280;20339;49.754;20.158;2023-03-26T01:32:11;95706.08;;;6.80;68.39
34065;BME280;20339;49.754;20.158;2023-03-26T01:34:51;95708.39;;;6.80;68.41
34065;BME280;20339;49.754;20.158;2023-03-26T01:37:32;95712.95;;;6.82;68.36
34065;BME280;20339;49.754;20.158;2023-03-26T01:40:06;95701.83;;;6.83;68.37
34065;BME280;20339;49.754;20.158;2023-03-26T01:42:44;95701.67;;;6.83;68.56
34065;BME280;20339;49.754;20.158;2023-03-26T01:45:22;95685.95;;;6.80;68.59
34065;BME280;20339;49.754;20.158;2023-03-26T01:47:56;95698.83;;;6.78;68.72
34065;BME280;20339;49.754;20.158;2023-03-26T01:50:27;95687.61;;;6.77;68.85
34065;BME280;20339;49.754;20.158;2023-03-26T01:52:59;95688.47;;;6.76;68.97
34065;BME280;20339;49.754;20.158;2023-03-26T01:55:45;95694.47;;;6.76;69.33
34065;BME280;20339;49.754;20.158;2023-03-26T01:58:30;95701.11;;;6.68;70.47
34065;BME280;20339;49.754;20.158;2023-03-26T02:01:13;95698.60;;;6.59;71.04
34065;BME280;20339;49.754;20.158;2023-03-26T02:03:52;95694.13;;;6.52;71.79
34065;BME280;20339;49.754;20.158;2023-03-26T02:06:29;95693.94;;;6.46;71.88
34065;BME280;20339;49.754;20.158;2023-03-26T02:09:04;95701.11;;;6.44;71.84
34065;BME280;20339;49.754;20.158;2023-03-26T02:11:37;95695.48;;;6.44;72.17
34065;BME280;20339;49.754;20.158;2023-03-26T02:14:10;95691.64;;;6.44;72.18
34065;BME280;20339;49.754;20.158;2023-03-26T02:16:43;95691.16;;;6.43;72.71
34065;BME280;20339;49.754;20.158;2023-03-26T02:19:17;95696.43;;;6.37;73.11
34065;BME280;20339;49.754;20.158;2023-03-26T02:21:50;95686.61;;;6.32;73.34
34065;BME280;20339;49.754;20.158;2023-03-26T02:24:21;95696.86;;;6.27;73.50
34065;BME280;20339;49.754;20.158;2023-03-26T02:26:52;95705.54;;;6.18;73.89
34065;BME280;20339;49.754;20.158;2023-03-26T02:29:24;95708.24;;;6.14;74.41
34065;BME280;20339;49.754;20.158;2023-03-26T02:31:56;95703.26;;;6.13;74.55
34065;BME280;20339;49.754;20.158;2023-03-26T02:34:29;95699.73;;;6.12;74.80
34065;BME280;20339;49.754;20.158;2023-03-26T02:37:00;95698.48;;;6.09;75.02
34065;BME280;20339;49.754;20.158;2023-03-26T02:39:32;95700.92;;;6.07;75.15
34065;BME280;20339;49.754;20.158;2023-03-26T02:42:03;95692.89;;;6.02;75.40
34065;BME280;20339;49.754;20.158;2023-03-26T02:44:35;95692.10;;;5.94;75.90
34065;BME280;20339;49.754;20.158;2023-03-26T02:47:12;95692.93;;;5.89;76.19
34065;BME280;20339;49.754;20.158;2023-03-26T02:49:43;95694.02;;;5.88;76.34
34065;BME280;20339;49.754;20.158;2023-03-26T02:52:15;95689.56;;;5.90;76.66
34065;BME280;20339;49.754;20.158;2023-03-26T02:54:47;95688.69;;;5.91;76.65
34065;BME280;20339;49.754;20.158;2023-03-26T02:57:18;95692.80;;;5.93;76.79
34065;BME280;20339;49.754;20.158;2023-03-26T02:59:49;95692.27;;;5.90;77.09
34065;BME280;20339;49.754;20.158;2023-03-26T03:02:21;95688.15;;;5.87;77.20
34065;BME280;20339;49.754;20.158;2023-03-26T03:04:53;95691.73;;;5.87;77.46
34065;BME280;20339;49.754;20.158;2023-03-26T03:07:35;95681.77;;;5.88;77.50
34065;BME280;20339;49.754;20.158;2023-03-26T03:10:08;95684.77;;;5.89;77.37
34065;BME280;20339;49.754;20.158;2023-03-26T03:12:42;95681.40;;;5.89;77.62
34065;BME280;20339;49.754;20.158;2023-03-26T03:15:14;95684.34;;;5.88;77.44
34065;BME280;20339;49.754;20.158;2023-03-26T03:17:45;95684.83;;;5.88;77.57
34065;BME280;20339;49.754;20.158;2023-03-26T03:20:18;95682.30;;;5.87;77.59
34065;BME280;20339;49.754;20.158;2023-03-26T03:22:50;95680.83;;;5.89;77.67
34065;BME280;20339;49.754;20.158;2023-03-26T03:25:24;95685.09;;;5.89;77.65
34065;BME280;20339;49.754;20.158;2023-03-26T03:27:57;95684.88;;;5.90;77.49
34065;BME280;20339;49.754;20.158;2023-03-26T03:30:29;95678.37;;;5.91;77.47
34065;BME280;20339;49.754;20.158;2023-03-26T03:33:00;95675.63;;;5.88;77.26
34065;BME280;20339;49.754;20.158;2023-03-26T03:35:32;95675.67;;;5.87;77.43
34065;BME280;20339;49.754;20.158;2023-03-26T03:38:04;95673.94;;;5.88;77.00
34065;BME280;20339;49.754;20.158;2023-03-26T03:40:36;95670.30;;;5.88;76.82
34065;BME280;20339;49.754;20.158;2023-03-26T03:43:07;95668.55;;;5.92;76.76
34065;BME280;20339;49.754;20.158;2023-03-26T03:45:38;95668.55;;;5.92;76.56
34065;BME280;20339;49.754;20.158;2023-03-26T03:48:09;95668.06;;;5.93;76.73
34065;BME280;20339;49.754;20.158;2023-03-26T03:50:40;95666.64;;;5.94;76.69
34065;BME280;20339;49.754;20.158;2023-03-26T03:53:11;95667.26;;;5.95;76.66
34065;BME280;20339;49.754;20.158;2023-03-26T03:55:44;95667.08;;;5.98;76.51
34065;BME280;20339;49.754;20.158;2023-03-26T03:58:23;95665.09;;;6.04;76.40
34065;BME280;20339;49.754;20.158;2023-03-26T04:00:56;95668.05;;;6.07;76.23
34065;BME280;20339;49.754;20.158;2023-03-26T04:03:29;95663.56;;;6.04;76.21
34065;BME280;20339;49.754;20.158;2023-03-26T04:06:00;95669.55;;;5.98;76.26
34065;BME280;20339;49.754;20.158;2023-03-26T04:08:35;95669.59;;;5.93;76.31
34065;BME280;20339;49.754;20.158;2023-03-26T04:11:08;95673.36;;;5.88;76.69
34065;BME280;20339;49.754;20.158;2023-03-26T04:13:39;95673.52;;;5.89;76.57
34065;BME280;20339;49.754;20.158;2023-03-26T04:16:11;95671.41;;;5.97;76.51
34065;BME280;20339;49.754;20.158;2023-03-26T04:18:43;95665.84;;;6.03;76.31
34065;BME280;20339;49.754;20.158;2023-03-26T04:21:18;95663.23;;;6.09;76.12
34065;BME280;20339;49.754;20.158;2023-03-26T04:23:49;95660.99;;;6.13;76.13
34065;BME280;20339;49.754;20.158;2023-03-26T04:26:23;95662.78;;;6.14;76.02
34065;BME280;20339;49.754;20.158;2023-03-26T04:28:56;95657.81;;;6.19;75.73
34065;BME280;20339;49.754;20.158;2023-03-26T04:31:32;95656.05;;;6.23;75.73
34065;BME280;20339;49.754;20.158;2023-03-26T04:34:07;95657.04;;;6.24;75.41
34065;BME280;20339;49.754;20.158;2023-03-26T04:36:44;95656.16;;;6.29;75.35
34065;BME280;20339;49.754;20.158;2023-03-26T04:39:15;95657.23;;;6.32;75.22
34065;BME280;20339;49.754;20.158;2023-03-26T04:41:46;95654.60;;;6.32;75.17
34065;BME280;20339;49.754;20.158;2023-03-26T04:44:18;95657.54;;;6.32;75.05
34065;BME280;20339;49.754;20.158;2023-03-26T04:46:51;95660.39;;;6.35;75.20
34065;BME280;20339;49.754;20.158;2023-03-26T04:49:24;95655.48;;;6.36;74.97
34065;BME280;20339;49.754;20.158;2023-03-26T04:51:57;95659.30;;;6.39;75.16
34065;BME280;20339;49.754;20.158;2023-03-26T04:54:28;95661.55;;;6.40;75.23
34065;BME280;20339;49.754;20.158;2023-03-26T04:57:01;95655.46;;;6.39;75.26
34065;BME280;20339;49.754;20.158;2023-03-26T04:59:37;95654.77;;;6.40;75.39
34065;BME280;20339;49.754;20.158;2023-03-26T05:02:12;95650.66;;;6.45;75.02
34065;BME280;20339;49.754;20.158;2023-03-26T05:04:43;95645.25;;;6.43;75.01
34065;BME280;20339;49.754;20.158;2023-03-26T05:07:20;95644.07;;;6.41;75.03
34065;BME280;20339;49.754;20.158;2023-03-26T05:09:53;95652.98;;;6.39;75.07
34065;BME280;20339;49.754;20.158;2023-03-26T05:12:28;95651.66;;;6.39;74.96
34065;BME280;20339;49.754;20.158;2023-03-26T05:15:00;95649.07;;;6.41;74.86
34065;BME280;20339;49.754;20.158;2023-03-26T05:17:31;95647.75;;;6.41;74.88
34065;BME280;20339;49.754;20.158;2023-03-26T05:20:04;95654.32;;;6.42;74.53
34065;BME280;20339;49.754;20.158;2023-03-26T05:22:38;95655.61;;;6.45;74.45
34065;BME280;20339;49.754;20.158;2023-03-26T05:25:10;95658.39;;;6.49;74.27
34065;BME280;20339;49.754;20.158;2023-03-26T05:27:44;95660.77;;;6.53;74.09
34065;BME280;20339;49.754;20.158;2023-03-26T05:30:18;95664.34;;;6.62;73.98
34065;BME280;20339;49.754;20.158;2023-03-26T05:32:50;95665.35;;;6.68;73.76
34065;BME280;20339;49.754;20.158;2023-03-26T05:35:21;95662.33;;;6.69;73.73
34065;BME280;20339;49.754;20.158;2023-03-26T05:37:54;95663.98;;;6.71;73.43
34065;BME280;20339;49.754;20.158;2023-03-26T05:40:25;95668.67;;;6.72;73.35
34065;BME280;20339;49.754;20.158;2023-03-26T05:42:58;95662.66;;;6.73;73.03
34065;BME280;20339;49.754;20.158;2023-03-26T05:45:30;95664.27;;;6.70;73.04
34065;BME280;20339;49.754;20.158;2023-03-26T05:48:01;95663.77;;;6.74;73.04
34065;BME280;20339;49.754;20.158;2023-03-26T05:50:32;95661.06;;;6.81;72.79
34065;BME280;20339;49.754;20.158;2023-03-26T05:53:03;95660.20;;;6.95;72.30
34065;BME280;20339;49.754;20.158;2023-03-26T05:55:35;95654.81;;;7.23;72.42
34065;BME280;20339;49.754;20.158;2023-03-26T05:58:06;95651.40;;;7.64;72.58
34065;BME280;20339;49.754;20.158;2023-03-26T06:00:38;95650.62;;;8.12;71.22
34065;BME280;20339;49.754;20.158;2023-03-26T06:03:09;95651.38;;;8.62;69.99
34065;BME280;20339;49.754;20.158;2023-03-26T06:05:43;95653.32;;;8.92;69.41
34065;BME280;20339;49.754;20.158;2023-03-26T06:08:16;95654.66;;;9.21;69.06
34065;BME280;20339;49.754;20.158;2023-03-26T06:10:48;95651.43;;;10.21;67.94
34065;BME280;20339;49.754;20.158;2023-03-26T06:13:19;95649.63;;;11.55;64.07
34065;BME280;20339;49.754;20.158;2023-03-26T06:15:53;95648.45;;;12.23;61.04
34065;BME280;20339;49.754;20.158;2023-03-26T06:18:24;95647.89;;;12.06;58.65
34065;BME280;20339;49.754;20.158;2023-03-26T06:20:56;95651.70;;;11.40;58.76
34065;BME280;20339;49.754;20.158;2023-03-26T06:23:30;95654.15;;;12.55;59.37
34065;BME280;20339;49.754;20.158;2023-03-26T06:26:03;95653.95;;;13.47;54.82
34065;BME280;20339;49.754;20.158;2023-03-26T06:28:36;95647.77;;;13.99;53.86
34065;BME280;20339;49.754;20.158;2023-03-26T06:31:09;95643.73;;;14.36;51.55
34065;BME280;20339;49.754;20.158;2023-03-26T06:33:40;95653.09;;;14.35;50.45
34065;BME280;20339;49.754;20.158;2023-03-26T06:36:12;95648.11;;;14.29;50.00
34065;BME280;20339;49.754;20.158;2023-03-26T06:38:44;95652.17;;;12.57;50.90
34065;BME280;20339;49.754;20.158;2023-03-26T06:41:15;95650.90;;;11.25;53.55
34065;BME280;20339;49.754;20.158;2023-03-26T06:43:46;95648.94;;;11.27;55.78
34065;BME280;20339;49.754;20.158;2023-03-26T06:46:18;95649.17;;;13.00;54.12
34065;BME280;20339;49.754;20.158;2023-03-26T06:48:50;95647.65;;;13.92;51.28
34065;BME280;20339;49.754;20.158;2023-03-26T06:51:22;95645.20;;;15.14;50.14
34065;BME280;20339;49.754;20.158;2023-03-26T06:53:53;95651.08;;;15.92;48.04
34065;BME280;20339;49.754;20.158;2023-03-26T06:56:26;95647.59;;;16.63;47.55
34065;BME280;20339;49.754;20.158;2023-03-26T06:58:57;95656.67;;;17.12;44.45
34065;BME280;20339;49.754;20.158;2023-03-26T07:01:28;95645.95;;;15.66;43.76
34065;BME280;20339;49.754;20.158;2023-03-26T07:03:59;95649.44;;;14.80;45.86
34065;BME280;20339;49.754;20.158;2023-03-26T07:06:30;95651.13;;;14.71;46.72
34065;BME280;20339;49.754;20.158;2023-03-26T07:09:02;95650.37;;;13.71;46.72
34065;BME280;20339;49.754;20.158;2023-03-26T07:11:34;95656.23;;;12.76;48.69
34065;BME280;20339;49.754;20.158;2023-03-26T07:14:05;95657.30;;;11.95;49.96
34065;BME280;20339;49.754;20.158;2023-03-26T07:16:37;95654.06;;;11.16;51.68
34065;BME280;20339;49.754;20.158;2023-03-26T07:19:09;95661.88;;;10.47;53.07
34065;BME280;20339;49.754;20.158;2023-03-26T07:21:40;95662.11;;;10.23;54.29
34065;BME280;20339;49.754;20.158;2023-03-26T07:24:14;95656.48;;;9.90;55.01
34065;BME280;20339;49.754;20.158;2023-03-26T07:26:53;95663.95;;;9.56;56.34
34065;BME280;20339;49.754;20.158;2023-03-26T07:29:34;95659.13;;;9.28;57.28
34065;BME280;20339;49.754;20.158;2023-03-26T07:32:12;95659.66;;;9.22;57.99
34065;BME280;20339;49.754;20.158;2023-03-26T07:34:52;95658.06;;;9.17;58.28
34065;BME280;20339;49.754;20.158;2023-03-26T07:37:34;95661.08;;;9.08;59.18
34065;BME280;20339;49.754;20.158;2023-03-26T07:40:19;95662.68;;;9.12;59.58
34065;BME280;20339;49.754;20.158;2023-03-26T07:43:02;95654.70;;;9.16;59.68
34065;BME280;20339;49.754;20.158;2023-03-26T07:45:40;95653.69;;;9.22;59.79
34065;BME280;20339;49.754;20.158;2023-03-26T07:48:16;95651.31;;;9.33;59.87
34065;BME280;20339;49.754;20.158;2023-03-26T07:50:49;95654.75;;;9.50;60.00
34065;BME280;20339;49.754;20.158;2023-03-26T07:53:22;95649.19;;;9.47;59.26
34065;BME280;20339;49.754;20.158;2023-03-26T07:55:59;95646.73;;;9.51;59.72
34065;BME280;20339;49.754;20.158;2023-03-26T07:58:43;95646.59;;;10.42;59.52
34065;BME280;20339;49.754;20.158;2023-03-26T08:01:23;95642.21;;;10.79;58.16
34065;BME280;20339;49.754;20.158;2023-03-26T08:04:16;95641.15;;;10.88;56.35
34065;BME280;20339;49.754;20.158;2023-03-26T08:06:57;95648.38;;;10.68;55.53
34065;BME280;20339;49.754;20.158;2023-03-26T08:09:37;95654.67;;;10.57;56.17
34065;BME280;20339;49.754;20.158;2023-03-26T08:12:19;95647.41;;;10.92;56.06
34065;BME280;20339;49.754;20.158;2023-03-26T08:14:59;95649.87;;;11.35;55.68
34065;BME280;20339;49.754;20.158;2023-03-26T08:17:37;95649.66;;;11.24;54.40
34065;BME280;20339;49.754;20.158;2023-03-26T08:20:13;95657.81;;;10.85;54.61
34065;BME280;20339;49.754;20.158;2023-03-26T08:22:56;95661.88;;;10.48;54.75
34065;BME280;20339;49.754;20.158;2023-03-26T08:25:34;95652.81;;;10.26;55.13
34065;BME280;20339;49.754;20.158;2023-03-26T08:28:16;95650.55;;;10.12;55.47
34065;BME280;20339;49.754;20.158;2023-03-26T08:30:51;95648.41;;;10.32;55.73
34065;BME280;20339;49.754;20.158;2023-03-26T08:33:26;95635.68;;;11.10;54.89
34065;BME280;20339;49.754;20.158;2023-03-26T08:35:58;95628.53;;;11.39;53.78
34065;BME280;20339;49.754;20.158;2023-03-26T08:38:31;95628.81;;;13.28;54.61
34065;BME280;20339;49.754;20.158;2023-03-26T08:48:09;95612.67;;;17.31;44.17
34065;BME280;20339;49.754;20.158;2023-03-26T08:51:25;95610.46;;;17.22;42.44
34065;BME280;20339;49.754;20.158;2023-03-26T08:54:28;95611.81;;;17.84;43.26
34065;BME280;20339;49.754;20.158;2023-03-26T09:00:35;95609.20;;;17.17;41.37
34065;BME280;20339;49.754;20.158;2023-03-26T09:03:31;95607.31;;;17.06;41.16
34065;BME280;20339;49.754;20.158;2023-03-26T09:06:30;95604.55;;;15.15;41.56
34065;BME280;20339;49.754;20.158;2023-03-26T09:09:34;95612.96;;;14.38;43.31
34065;BME280;20339;49.754;20.158;2023-03-26T09:12:32;95605.42;;;13.30;44.30
34065;BME280;20339;49.754;20.158;2023-03-26T09:15:39;95603.92;;;12.23;45.53
34065;BME280;20339;49.754;20.158;2023-03-26T09:25:00;95600.71;;;11.09;48.72
34065;BME280;20339;49.754;20.158;2023-03-26T09:27:56;95606.05;;;10.83;49.11
34065;BME280;20339;49.754;20.158;2023-03-26T09:31:03;95604.77;;;10.56;49.57
34065;BME280;20339;49.754;20.158;2023-03-26T09:33:55;95615.16;;;10.31;50.62
34065;BME280;20339;49.754;20.158;2023-03-26T09:39:38;95619.27;;;10.22;51.18
34065;BME280;20339;49.754;20.158;2023-03-26T09:42:20;95617.11;;;10.09;51.62
34065;BME280;20339;49.754;20.158;2023-03-26T09:45:17;95612.70;;;9.97;51.73
34065;BME280;20339;49.754;20.158;2023-03-26T09:48:17;95615.70;;;9.81;52.16
34065;BME280;20339;49.754;20.158;2023-03-26T09:51:04;95615.10;;;9.77;52.75
34065;BME280;20339;49.754;20.158;2023-03-26T09:54:09;95610.90;;;9.77;52.47
34065;BME280;20339;49.754;20.158;2023-03-26T09:56:53;95609.33;;;9.69;52.75
34065;BME280;20339;49.754;20.158;2023-03-26T09:59:52;95612.08;;;9.64;52.85
34065;BME280;20339;49.754;20.158;2023-03-26T10:02:41;95612.48;;;9.61;53.14
34065;BME280;20339;49.754;20.158;2023-03-26T10:05:31;95610.70;;;9.64;53.14
34065;BME280;20339;49.754;20.158;2023-03-26T10:08:22;95607.46;;;9.80;53.82
34065;BME280;20339;49.754;20.158;2023-03-26T10:11:06;95610.19;;;10.06;53.28
34065;BME280;20339;49.754;20.158;2023-03-26T10:13:51;95601.17;;;10.46;53.27
34065;BME280;20339;49.754;20.158;2023-03-26T10:16:37;95598.70;;;10.68;52.91
34065;BME280;20339;49.754;20.158;2023-03-26T10:19:34;95598.39;;;10.67;52.53
34065;BME280;20339;49.754;20.158;2023-03-26T10:22:21;95592.15;;;10.45;51.77
34065;BME280;20339;49.754;20.158;2023-03-26T10:25:28;95595.84;;;10.12;51.67
34065;BME280;20339;49.754;20.158;2023-03-26T10:28:28;95592.27;;;10.01;52.39
34065;BME280;20339;49.754;20.158;2023-03-26T10:31:20;95594.02;;;10.11;52.78
34065;BME280;20339;49.754;20.158;2023-03-26T10:34:07;95592.13;;;10.23;51.88
34065;BME280;20339;49.754;20.158;2023-03-26T10:36:45;95589.67;;;10.21;51.77
34065;BME280;20339;49.754;20.158;2023-03-26T10:39:26;95595.98;;;10.18;52.16
34065;BME280;20339;49.754;20.158;2023-03-26T10:42:18;95588.33;;;10.17;51.91
34065;BME280;20339;49.754;20.158;2023-03-26T10:45:11;95587.74;;;10.12;51.18
34065;BME280;20339;49.754;20.158;2023-03-26T10:47:58;95590.13;;;10.07;51.02
34065;BME280;20339;49.754;20.158;2023-03-26T10:51:13;95594.36;;;10.10;51.53
34065;BME280;20339;49.754;20.158;2023-03-26T10:53:50;95584.04;;;10.15;51.84
34065;BME280;20339;49.754;20.158;2023-03-26T10:56:28;95583.91;;;10.21;51.45
34065;BME280;20339;49.754;20.158;2023-03-26T10:59:07;95587.66;;;10.29;51.51
34065;BME280;20339;49.754;20.158;2023-03-26T11:01:42;95585.88;;;10.28;50.71
34065;BME280;20339;49.754;20.158;2023-03-26T11:04:26;95582.91;;;10.33;51.35
34065;BME280;20339;49.754;20.158;2023-03-26T11:07:08;95584.80;;;10.70;51.48
34065;BME280;20339;49.754;20.158;2023-03-26T11:09:50;95582.72;;;10.77;51.23
34065;BME280;20339;49.754;20.158;2023-03-26T11:12:30;95576.73;;;10.64;50.89
34065;BME280;20339;49.754;20.158;2023-03-26T11:15:18;95579.94;;;10.35;51.10
34065;BME280;20339;49.754;20.158;2023-03-26T11:18:04;95577.72;;;10.15;51.63
34065;BME280;20339;49.754;20.158;2023-03-26T11:20:45;95582.36;;;10.04;52.24
34065;BME280;20339;49.754;20.158;2023-03-26T11:23:30;95585.06;;;9.97;52.28
34065;BME280;20339;49.754;20.158;2023-03-26T11:26:12;95588.81;;;9.89;52.87
34065;BME280;20339;49.754;20.158;2023-03-26T11:29:09;95585.39;;;9.82;53.38
34065;BME280;20339;49.754;20.158;2023-03-26T11:31:55;95589.62;;;9.75;53.71
34065;BME280;20339;49.754;20.158;2023-03-26T11:34:36;95591.77;;;9.81;54.19
34065;BME280;20339;49.754;20.158;2023-03-26T11:37:16;95584.02;;;9.94;54.51
34065;BME280;20339;49.754;20.158;2023-03-26T11:39:48;95575.56;;;10.22;54.58
34065;BME280;20339;49.754;20.158;2023-03-26T11:42:23;95568.42;;;10.42;54.35
34065;BME280;20339;49.754;20.158;2023-03-26T11:44:59;95570.84;;;10.56;54.37
34065;BME280;20339;49.754;20.158;2023-03-26T11:47:45;95565.69;;;10.71;54.34
34065;BME280;20339;49.754;20.158;2023-03-26T11:50:25;95562.59;;;10.96;54.39
34065;BME280;20339;49.754;20.158;2023-03-26T11:53:11;95557.63;;;11.29;54.37
34065;BME280;20339;49.754;20.158;2023-03-26T11:56:02;95557.94;;;11.29;52.90
34065;BME280;20339;49.754;20.158;2023-03-26T11:58:39;95552.81;;;11.05;53.05
34065;BME280;20339;49.754;20.158;2023-03-26T12:01:15;95550.85;;;10.85;53.41
34065;BME280;20339;49.754;20.158;2023-03-26T12:04:02;95549.87;;;10.70;53.49
34065;BME280;20339;49.754;20.158;2023-03-26T12:06:54;95551.42;;;10.67;54.34
34065;BME280;20339;49.754;20.158;2023-03-26T12:09:34;95553.59;;;10.73;54.29
34065;BME280;20339;49.754;20.158;2023-03-26T12:12:09;95549.48;;;10.71;54.39
34065;BME280;20339;49.754;20.158;2023-03-26T12:14:43;95550.91;;;10.76;54.67
34065;BME280;20339;49.754;20.158;2023-03-26T12:17:28;95547.32;;;10.82;54.80
34065;BME280;20339;49.754;20.158;2023-03-26T12:20:25;95548.15;;;10.93;54.85
34065;BME280;20339;49.754;20.158;2023-03-26T12:22:58;95538.70;;;10.95;54.08
34065;BME280;20339;49.754;20.158;2023-03-26T12:25:39;95539.50;;;10.71;53.36
34065;BME280;20339;49.754;20.158;2023-03-26T12:28:19;95536.22;;;10.46;53.53
34065;BME280;20339;49.754;20.158;2023-03-26T12:31:00;95538.39;;;10.35;54.12
34065;BME280;20339;49.754;20.158;2023-03-26T12:33:35;95537.19;;;10.37;53.98
34065;BME280;20339;49.754;20.158;2023-03-26T12:36:21;95533.02;;;10.34;54.21
34065;BME280;20339;49.754;20.158;2023-03-26T12:38:55;95532.60;;;10.37;54.49
34065;BME280;20339;49.754;20.158;2023-03-26T12:41:36;95531.66;;;10.31;53.89
34065;BME280;20339;49.754;20.158;2023-03-26T12:44:28;95523.77;;;10.22;54.13
34065;BME280;20339;49.754;20.158;2023-03-26T12:47:12;95518.84;;;10.22;54.94
34065;BME280;20339;49.754;20.158;2023-03-26T12:49:48;95509.21;;;10.34;54.89
34065;BME280;20339;49.754;20.158;2023-03-26T12:52:58;95508.07;;;10.53;54.72
34065;BME280;20339;49.754;20.158;2023-03-26T13:01:16;95495.89;;;10.60;53.80
34065;BME280;20339;49.754;20.158;2023-03-26T13:04:16;95489.98;;;10.75;54.41
34065;BME280;20339;49.754;20.158;2023-03-26T13:06:56;95482.45;;;11.00;53.11
34065;BME280;20339;49.754;20.158;2023-03-26T13:09:53;95482.55;;;11.40;53.34
34065;BME280;20339;49.754;20.158;2023-03-26T13:12:38;95476.77;;;11.68;51.93
34065;BME280;20339;49.754;20.158;2023-03-26T13:15:23;95470.45;;;11.68;52.53
34065;BME280;20339;49.754;20.158;2023-03-26T13:18:07;95462.64;;;11.68;51.19
34065;BME280;20339;49.754;20.158;2023-03-26T13:20:56;95464.14;;;11.56;50.65
34065;BME280;20339;49.754;20.158;2023-03-26T13:23:40;95461.78;;;11.35;51.02
34065;BME280;20339;49.754;20.158;2023-03-26T13:26:25;95462.63;;;11.30;51.36
34065;BME280;20339;49.754;20.158;2023-03-26T13:29:08;95457.98;;;11.21;51.14
34065;BME280;20339;49.754;20.158;2023-03-26T13:31:51;95453.46;;;11.11;51.17
34065;BME280;20339;49.754;20.158;2023-03-26T13:34:29;95454.09;;;11.04;51.24
34065;BME280;20339;49.754;20.158;2023-03-26T13:37:15;95445.20;;;11.14;52.06
34065;BME280;20339;49.754;20.158;2023-03-26T13:40:09;95436.65;;;11.53;52.35
34065;BME280;20339;49.754;20.158;2023-03-26T13:43:10;95436.29;;;11.79;50.44
34065;BME280;20339;49.754;20.158;2023-03-26T13:45:51;95430.78;;;11.75;50.25
34065;BME280;20339;49.754;20.158;2023-03-26T13:48:41;95426.08;;;11.71;50.24
34065;BME280;20339;49.754;20.158;2023-03-26T13:51:27;95423.41;;;11.85;50.43
34065;BME280;20339;49.754;20.158;2023-03-26T13:54:16;95421.39;;;11.96;48.52
34065;BME280;20339;49.754;20.158;2023-03-26T13:57:06;95417.14;;;11.87;48.10
34065;BME280;20339;49.754;20.158;2023-03-26T13:59:46;95413.57;;;12.07;47.42
34065;BME280;20339;49.754;20.158;2023-03-26T14:02:26;95408.56;;;12.09;47.14
34065;BME280;20339;49.754;20.158;2023-03-26T14:05:13;95409.91;;;12.14;47.08
34065;BME280;20339;49.754;20.158;2023-03-26T14:07:49;95410.67;;;12.29;47.10
34065;BME280;20339;49.754;20.158;2023-03-26T14:10:28;95405.52;;;12.25;45.88
34065;BME280;20339;49.754;20.158;2023-03-26T14:13:07;95404.65;;;11.99;46.40
34065;BME280;20339;49.754;20.158;2023-03-26T14:15:47;95403.02;;;11.71;46.88
34065;BME280;20339;49.754;20.158;2023-03-26T14:18:29;95406.40;;;11.51;47.07
34065;BME280;20339;49.754;20.158;2023-03-26T14:21:31;95402.88;;;11.40;47.89